Time;durP1;ratioP1;P1;durP2;ratioP2;P2;SDS_P1;SDS_P2;PMS_P1;PMS_P2;Temp;Humidity;BMP_temperature;BMP_pressure;BME280_temperature;BME280_humidity;BME280_pressure;Samples;Min_cycle;Max_cycle;Signal;HPM_P1;HPM_P2
2021/07/24 00:01:51;;;;;;;5.70;3.60;;;;;;;;;;5031296;28;20718;-55
2021/07/24 00:04:16;;;;;;;6.45;3.33;;;;;;;;;;5032658;28;20197;-56
2021/07/24 00:06:42;;;;;;;4.28;3.88;;;;;;;;;;5014900;28;20214;-57
2021/07/24 00:09:07;;;;;;;3.97;3.58;;;;;;;;;;5029999;28;20570;-56
2021/07/24 00:11:32;;;;;;;4.28;3.75;;;;;;;;;;5031119;28;20265;-56
2021/07/24 00:13:58;;;;;;;4.07;3.47;;;;;;;;;;5026596;28;20964;-56
2021/07/24 00:16:23;;;;;;;4.75;4.15;;;;;;;;;;5023265;28;20209;-55
2021/07/24 00:18:48;;;;;;;4.00;3.53;;;;;;;;;;5028228;28;20189;-55
2021/07/24 00:21:13;;;;;;;6.72;3.88;;;;;;;;;;5027783;28;20535;-56
2021/07/24 00:23:38;;;;;;;6.20;3.83;;;;;;;;;;5027317;28;20213;-56
2021/07/24 00:26:03;;;;;;;6.22;3.60;;;;;;;;;;5028915;28;20737;-56
2021/07/24 00:28:29;;;;;;;5.65;3.85;;;;;;;;;;5029281;28;20183;-56
2021/07/24 00:30:54;;;;;;;5.68;3.88;;;;;;;;;;5010547;28;20662;-56
2021/07/24 00:33:19;;;;;;;4.30;3.80;;;;;;;;;;5030978;28;20206;-56
2021/07/24 00:35:44;;;;;;;5.10;4.00;;;;;;;;;;5024876;28;20202;-56
2021/07/24 00:38:10;;;;;;;6.55;3.70;;;;;;;;;;5023838;28;20182;-56
2021/07/24 00:40:41;;;;;;;11.77;3.90;;;;;;;;;;5019946;28;20183;-55
2021/07/24 00:43:07;;;;;;;4.10;3.50;;;;;;;;;;5027256;28;20595;-55
2021/07/24 00:45:34;;;;;;;6.50;4.00;;;;;;;;;;5030652;28;20179;-56
2021/07/24 00:48:01;;;;;;;4.73;3.27;;;;;;;;;;5019768;28;20218;-55
2021/07/24 00:50:26;;;;;;;5.15;3.47;;;;;;;;;;5021483;28;20272;-55
2021/07/24 00:52:59;;;;;;;10.10;3.83;;;;;;;;;;5030383;28;20203;-56
2021/07/24 00:55:24;;;;;;;4.18;3.30;;;;;;;;;;5028343;28;20242;-55
2021/07/24 00:57:49;;;;;;;4.80;3.47;;;;;;;;;;5023623;28;20624;-56
2021/07/24 01:00:15;;;;;;;5.72;3.78;;;;;;;;;;5036967;28;20694;-55
2021/07/24 01:02:40;;;;;;;5.15;4.03;;;;;;;;;;5026841;28;20206;-56
2021/07/24 01:05:07;;;;;;;4.78;3.85;;;;;;;;;;5030575;28;20181;-56
2021/07/24 01:07:39;;;;;;;4.25;3.67;;;;;;;;;;5036632;28;20182;-56
2021/07/24 01:10:05;;;;;;;5.82;3.80;;;;;;;;;;5022870;28;20583;-55
2021/07/24 01:12:32;;;;;;;6.55;3.88;;;;;;;;;;5024564;28;20281;-56
2021/07/24 01:14:57;;;;;;;5.07;3.55;;;;;;;;;;5012779;28;20626;-55
2021/07/24 01:17:22;;;;;;;4.13;3.38;;;;;;;;;;5029545;28;20234;-56
2021/07/24 01:19:48;;;;;;;4.57;3.42;;;;;;;;;;5027389;28;20242;-56
2021/07/24 01:22:13;;;;;;;5.15;3.42;;;;;;;;;;5018910;28;20722;-56
2021/07/24 01:24:38;;;;;;;3.47;3.17;;;;;;;;;;5026442;28;21372;-57
2021/07/24 01:27:07;;;;;;;3.45;3.03;;;;;;;;;;5029618;28;20658;-55
2021/07/24 01:29:34;;;;;;;4.15;3.05;;;;;;;;;;5026386;28;20182;-56
2021/07/24 01:31:59;;;;;;;6.22;3.65;;;;;;;;;;5024580;28;20190;-55
2021/07/24 01:34:24;;;;;;;3.80;3.40;;;;;;;;;;5030736;28;20197;-55
2021/07/24 01:36:49;;;;;;;3.90;3.15;;;;;;;;;;5028028;28;20207;-56
2021/07/24 01:39:14;;;;;;;13.35;4.80;;;;;;;;;;5028337;28;20179;-56
2021/07/24 01:41:43;;;;;;;3.75;3.00;;;;;;;;;;5020003;28;20234;-55
2021/07/24 01:44:08;;;;;;;3.90;3.40;;;;;;;;;;5033705;28;20201;-56
2021/07/24 01:46:34;;;;;;;4.43;3.30;;;;;;;;;;5017955;28;20199;-56
2021/07/24 01:54:29;;;;;;;7.05;3.00;;;;;;;;;;5024035;28;20325;-56
2021/07/24 01:56:55;;;;;;;3.15;2.80;;;;;;;;;;5013815;28;20213;-56
2021/07/24 01:59:21;;;;;;;4.40;2.80;;;;;;;;;;5021021;28;20183;-56
2021/07/24 02:01:49;;;;;;;4.28;2.92;;;;;;;;;;5027867;28;20182;-56
2021/07/24 02:04:17;;;;;;;8.38;2.95;;;;;;;;;;5011967;28;20179;-55
2021/07/24 02:06:42;;;;;;;5.13;3.47;;;;;;;;;;5020027;28;20689;-56
2021/07/24 02:09:08;;;;;;;5.27;3.23;;;;;;;;;;5019379;28;20182;-56
2021/07/24 02:11:33;;;;;;;4.17;3.17;;;;;;;;;;5029576;28;20668;-56
2021/07/24 02:13:58;;;;;;;4.53;3.28;;;;;;;;;;5030164;28;20215;-55
2021/07/24 02:16:24;;;;;;;4.50;3.37;;;;;;;;;;5032482;28;20211;-55
2021/07/24 02:18:49;;;;;;;3.73;3.23;;;;;;;;;;5011392;28;20175;-56
2021/07/24 02:21:15;;;;;;;4.32;3.13;;;;;;;;;;5012711;28;20864;-56
2021/07/24 02:23:40;;;;;;;3.92;3.13;;;;;;;;;;5023376;28;20206;-56
2021/07/24 02:26:08;;;;;;;4.37;2.43;;;;;;;;;;5030218;28;20214;-55
2021/07/24 02:28:33;;;;;;;3.10;2.80;;;;;;;;;;5028692;28;20190;-56
2021/07/24 02:30:58;;;;;;;8.97;2.93;;;;;;;;;;5022621;28;20186;-56
2021/07/24 02:33:23;;;;;;;3.13;2.58;;;;;;;;;;5030331;28;20260;-56
2021/07/24 02:35:49;;;;;;;4.67;2.70;;;;;;;;;;5034929;28;20257;-56
2021/07/24 02:38:15;;;;;;;3.57;3.10;;;;;;;;;;5031549;28;20210;-56
2021/07/24 02:40:40;;;;;;;5.93;3.40;;;;;;;;;;5024078;28;20190;-56
2021/07/24 02:43:05;;;;;;;5.20;3.65;;;;;;;;;;5024523;28;20199;-54
2021/07/24 02:45:30;;;;;;;4.53;3.50;;;;;;;;;;5027682;28;20193;-56
2021/07/24 02:47:56;;;;;;;4.37;3.70;;;;;;;;;;5012986;28;20176;-56
2021/07/24 02:50:21;;;;;;;4.30;3.17;;;;;;;;;;5029412;28;20743;-56
2021/07/24 02:52:46;;;;;;;3.70;3.10;;;;;;;;;;5019101;28;20237;-56
2021/07/24 02:55:11;;;;;;;4.37;3.13;;;;;;;;;;5012981;28;20322;-56
2021/07/24 02:57:36;;;;;;;4.90;3.50;;;;;;;;;;5016078;28;20232;-56
2021/07/24 03:00:03;;;;;;;6.20;3.80;;;;;;;;;;5031582;28;20678;-60
2021/07/24 03:02:28;;;;;;;3.17;2.87;;;;;;;;;;5036813;28;20222;-56
2021/07/24 03:04:53;;;;;;;3.33;2.67;;;;;;;;;;5026394;28;20183;-56
2021/07/24 03:07:18;;;;;;;3.40;3.10;;;;;;;;;;5024073;28;20256;-56
2021/07/24 03:09:43;;;;;;;3.40;2.90;;;;;;;;;;5027587;28;20670;-56
2021/07/24 03:12:10;;;;;;;3.13;2.83;;;;;;;;;;5032148;28;20238;-56
2021/07/24 03:14:35;;;;;;;2.47;2.23;;;;;;;;;;5002935;22;20238;-55
2021/07/24 03:17:00;;;;;;;5.13;3.00;;;;;;;;;;4983101;28;20768;-56
2021/07/24 03:19:25;;;;;;;3.00;2.70;;;;;;;;;;4983202;28;20192;-56
2021/07/24 03:21:50;;;;;;;3.23;2.87;;;;;;;;;;4979932;28;20212;-56
2021/07/24 03:24:16;;;;;;;3.43;3.10;;;;;;;;;;4977512;28;20196;-56
2021/07/24 03:26:42;;;;;;;2.93;2.40;;;;;;;;;;4995241;28;20192;-56
2021/07/24 03:29:07;;;;;;;3.70;3.30;;;;;;;;;;4992046;28;20214;-56
2021/07/24 03:31:32;;;;;;;6.07;2.87;;;;;;;;;;4989649;28;20192;-56
2021/07/24 03:33:57;;;;;;;5.87;3.00;;;;;;;;;;4994272;28;20202;-56
2021/07/24 03:36:23;;;;;;;3.37;2.97;;;;;;;;;;4993417;28;20220;-56
2021/07/24 03:38:48;;;;;;;3.57;3.00;;;;;;;;;;4984952;28;20620;-56
2021/07/24 03:41:13;;;;;;;5.13;3.13;;;;;;;;;;4993300;28;20176;-57
2021/07/24 03:43:38;;;;;;;8.47;3.17;;;;;;;;;;4987814;28;20705;-57
2021/07/24 03:46:11;;;;;;;6.63;3.00;;;;;;;;;;4991434;28;20192;-56
2021/07/24 03:48:37;;;;;;;8.20;3.00;;;;;;;;;;4993418;28;20196;-56
2021/07/24 03:51:02;;;;;;;5.47;3.07;;;;;;;;;;4988627;28;20184;-56
2021/07/24 03:53:27;;;;;;;6.40;2.80;;;;;;;;;;4990445;28;20885;-56
2021/07/24 03:55:52;;;;;;;6.53;2.70;;;;;;;;;;4980450;28;20253;-56
2021/07/24 03:58:18;;;;;;;5.30;3.07;;;;;;;;;;4991901;28;20176;-56
2021/07/24 04:00:46;;;;;;;9.37;3.17;;;;;;;;;;4991080;28;20541;-56
2021/07/24 04:03:11;;;;;;;3.37;2.50;;;;;;;;;;4988821;28;20207;-57
2021/07/24 04:05:41;;;;;;;4.27;3.00;;;;;;;;;;4994123;28;20188;-56
2021/07/24 04:08:07;;;;;;;6.47;2.80;;;;;;;;;;4986842;28;20680;-56
2021/07/24 04:10:33;;;;;;;5.23;3.00;;;;;;;;;;4995308;28;20184;-56
2021/07/24 04:12:58;;;;;;;5.40;3.27;;;;;;;;;;4991196;28;20275;-56
2021/07/24 04:15:24;;;;;;;2.90;2.60;;;;;;;;;;4992106;28;20275;-56
2021/07/24 04:17:49;;;;;;;7.03;3.87;;;;;;;;;;4995120;28;20214;-56
2021/07/24 04:20:15;;;;;;;4.63;2.90;;;;;;;;;;4989245;28;20208;-56
2021/07/24 04:22:40;;;;;;;3.33;3.00;;;;;;;;;;4975348;28;20189;-56
2021/07/24 04:25:06;;;;;;;7.00;3.20;;;;;;;;;;4983711;28;20204;-56
2021/07/24 04:27:31;;;;;;;7.37;3.37;;;;;;;;;;4989996;28;20187;-56
2021/07/24 04:29:59;;;;;;;7.73;3.33;;;;;;;;;;4984475;28;20184;-65
2021/07/24 04:32:24;;;;;;;7.93;3.47;;;;;;;;;;4989799;28;20196;-56
2021/07/24 04:34:49;;;;;;;4.23;2.93;;;;;;;;;;4990444;28;20270;-55
2021/07/24 04:37:15;;;;;;;6.17;3.60;;;;;;;;;;4988038;28;20207;-56
2021/07/24 04:39:40;;;;;;;6.83;3.83;;;;;;;;;;4984983;28;20188;-56
2021/07/24 04:42:05;;;;;;;7.73;4.00;;;;;;;;;;4988202;28;20682;-56
2021/07/24 04:44:30;;;;;;;8.97;3.70;;;;;;;;;;4987629;28;20693;-56
2021/07/24 04:46:55;;;;;;;9.87;4.77;;;;;;;;;;4985854;28;20557;-56
2021/07/24 04:49:21;;;;;;;5.50;4.47;;;;;;;;;;4990543;28;20267;-56
2021/07/24 04:51:46;;;;;;;5.87;3.97;;;;;;;;;;4988356;28;20196;-56
2021/07/24 04:54:11;;;;;;;4.80;4.30;;;;;;;;;;4971968;28;20214;-55
2021/07/24 04:56:38;;;;;;;8.73;4.40;;;;;;;;;;4982365;28;20625;-56
2021/07/24 04:59:04;;;;;;;5.05;4.45;;;;;;;;;;4980236;28;20599;-56
2021/07/24 05:01:29;;;;;;;6.47;5.37;;;;;;;;;;4987537;28;20671;-56
2021/07/24 05:03:55;;;;;;;5.68;4.97;;;;;;;;;;4987187;28;20209;-56
2021/07/24 05:06:20;;;;;;;10.32;4.72;;;;;;;;;;4990923;28;20164;-56
2021/07/24 05:08:45;;;;;;;4.97;4.47;;;;;;;;;;4982979;28;20209;-56
2021/07/24 05:11:10;;;;;;;5.88;4.85;;;;;;;;;;4976264;28;20185;-56
2021/07/24 05:13:36;;;;;;;5.47;4.43;;;;;;;;;;4981552;28;20230;-56
2021/07/24 05:16:01;;;;;;;5.93;5.07;;;;;;;;;;4987852;28;20208;-55
2021/07/24 05:18:26;;;;;;;6.82;4.72;;;;;;;;;;4982850;28;20224;-56
2021/07/24 05:20:51;;;;;;;6.18;5.15;;;;;;;;;;4987354;28;20188;-55
2021/07/24 05:23:16;;;;;;;6.63;4.90;;;;;;;;;;4985210;28;20192;-56
2021/07/24 05:25:42;;;;;;;6.53;4.63;;;;;;;;;;4985590;28;20254;-56
2021/07/24 05:28:07;;;;;;;7.45;5.15;;;;;;;;;;4970327;28;20907;-56
2021/07/24 05:30:32;;;;;;;6.75;5.18;;;;;;;;;;4985126;28;20188;-56
2021/07/24 05:32:58;;;;;;;5.88;4.93;;;;;;;;;;4981897;28;20183;-56
2021/07/24 05:35:23;;;;;;;6.15;4.68;;;;;;;;;;4973042;28;20184;-55
2021/07/24 05:37:48;;;;;;;5.38;4.88;;;;;;;;;;4990352;28;20259;-56
2021/07/24 05:40:13;;;;;;;7.97;4.95;;;;;;;;;;4972733;28;20231;-55
2021/07/24 05:42:38;;;;;;;7.05;5.05;;;;;;;;;;4976003;28;20235;-55
2021/07/24 05:45:04;;;;;;;6.65;5.22;;;;;;;;;;4985012;28;20276;-56
2021/07/24 05:47:31;;;;;;;5.38;4.40;;;;;;;;;;4974010;28;20194;-55
2021/07/24 05:49:56;;;;;;;6.30;4.45;;;;;;;;;;4983347;28;20192;-55
2021/07/24 05:52:21;;;;;;;7.00;5.32;;;;;;;;;;4988055;28;20199;-56
2021/07/24 05:54:47;;;;;;;8.05;5.15;;;;;;;;;;4980695;28;20685;-56
2021/07/24 05:57:12;;;;;;;7.25;5.10;;;;;;;;;;4989176;28;20206;-56
2021/07/24 05:59:37;;;;;;;5.90;4.88;;;;;;;;;;4983194;28;20905;-56
2021/07/24 06:02:05;;;;;;;5.35;4.75;;;;;;;;;;4983906;28;20768;-56
2021/07/24 06:04:30;;;;;;;6.57;5.00;;;;;;;;;;4987658;28;20204;-56
2021/07/24 06:06:55;;;;;;;5.38;4.50;;;;;;;;;;4986278;28;20187;-55
2021/07/24 06:09:20;;;;;;;13.50;5.50;;;;;;;;;;4988593;28;20275;-56
2021/07/24 06:11:46;;;;;;;8.90;4.50;;;;;;;;;;4986178;28;20196;-56
2021/07/24 06:14:11;;;;;;;6.32;5.13;;;;;;;;;;4985579;28;20533;-56
2021/07/24 06:16:36;;;;;;;7.33;5.47;;;;;;;;;;4987571;28;20242;-55
2021/07/24 06:19:01;;;;;;;6.32;5.22;;;;;;;;;;4988225;28;20426;-56
2021/07/24 06:21:26;;;;;;;5.70;4.53;;;;;;;;;;4982091;28;20192;-56
2021/07/24 06:23:52;;;;;;;6.93;5.10;;;;;;;;;;4986638;28;20200;-55
2021/07/24 06:26:17;;;;;;;5.68;4.90;;;;;;;;;;4984704;28;20192;-55
2021/07/24 06:28:42;;;;;;;6.22;4.80;;;;;;;;;;4988346;28;20194;-56
2021/07/24 06:31:07;;;;;;;8.43;4.95;;;;;;;;;;4982798;28;20565;-55
2021/07/24 06:33:33;;;;;;;7.13;5.03;;;;;;;;;;4972481;28;20303;-55
2021/07/24 06:35:59;;;;;;;8.82;5.30;;;;;;;;;;4985166;28;20222;-55
2021/07/24 06:38:24;;;;;;;5.60;4.95;;;;;;;;;;4986545;28;20796;-55
2021/07/24 06:40:49;;;;;;;5.28;4.57;;;;;;;;;;4986262;28;20183;-56
2021/07/24 06:43:15;;;;;;;5.97;4.60;;;;;;;;;;4970318;28;20228;-56
2021/07/24 06:45:40;;;;;;;6.97;4.47;;;;;;;;;;4986450;28;20427;-55
2021/07/24 06:48:05;;;;;;;5.32;4.45;;;;;;;;;;4987133;28;20192;-55
2021/07/24 06:50:30;;;;;;;7.60;5.07;;;;;;;;;;4984139;28;20451;-54
2021/07/24 06:52:59;;;;;;;6.68;4.68;;;;;;;;;;4987914;28;20690;-54
2021/07/24 06:55:24;;;;;;;5.05;4.20;;;;;;;;;;4986692;28;20212;-54
2021/07/24 06:57:50;;;;;;;7.03;4.97;;;;;;;;;;4986883;28;20226;-57
2021/07/24 07:00:15;;;;;;;6.60;4.70;;;;;;;;;;4985824;28;20195;-54
2021/07/24 07:02:40;;;;;;;6.63;4.80;;;;;;;;;;4987486;28;20192;-56
2021/07/24 07:05:06;;;;;;;8.30;5.07;;;;;;;;;;4987184;28;20216;-54
2021/07/24 07:07:31;;;;;;;7.30;3.95;;;;;;;;;;4986670;28;20211;-56
2021/07/24 07:09:56;;;;;;;6.47;4.00;;;;;;;;;;4984623;28;20196;-55
2021/07/24 07:12:21;;;;;;;7.63;3.33;;;;;;;;;;4984064;28;20184;-56
2021/07/24 07:14:47;;;;;;;5.22;3.53;;;;;;;;;;4983426;28;20463;-56
2021/07/24 07:17:12;;;;;;;4.83;3.47;;;;;;;;;;4987966;28;20223;-56
2021/07/24 07:19:39;;;;;;;4.53;2.90;;;;;;;;;;4986175;28;20416;-56
2021/07/24 07:22:06;;;;;;;5.00;3.25;;;;;;;;;;4983426;28;21210;-55
2021/07/24 07:24:31;;;;;;;4.57;3.08;;;;;;;;;;4988691;28;20262;-55
2021/07/24 07:26:56;;;;;;;6.97;3.60;;;;;;;;;;4984836;28;20188;-55
2021/07/24 07:29:21;;;;;;;4.38;3.25;;;;;;;;;;4986023;28;21090;-55
2021/07/24 07:31:46;;;;;;;4.20;3.80;;;;;;;;;;4985520;28;20622;-55
2021/07/24 07:34:11;;;;;;;5.18;3.97;;;;;;;;;;4979622;28;20743;-57
2021/07/24 07:36:37;;;;;;;4.07;3.67;;;;;;;;;;4980255;28;20295;-58
2021/07/24 07:39:02;;;;;;;6.55;3.88;;;;;;;;;;4973924;28;20271;-57
2021/07/24 07:41:28;;;;;;;4.88;3.75;;;;;;;;;;4987221;28;20275;-59
2021/07/24 07:43:53;;;;;;;4.65;3.60;;;;;;;;;;4982663;28;20223;-60
2021/07/24 07:46:18;;;;;;;4.60;4.17;;;;;;;;;;4970311;28;20191;-60
2021/07/24 07:48:43;;;;;;;5.63;4.10;;;;;;;;;;4981612;28;21922;-59
2021/07/24 07:51:08;;;;;;;4.80;4.40;;;;;;;;;;4980942;28;20235;-59
2021/07/24 07:53:34;;;;;;;4.80;4.40;;;;;;;;;;4972798;28;20227;-59
2021/07/24 07:56:00;;;;;;;5.60;4.72;;;;;;;;;;4984867;28;20208;-59
2021/07/24 07:58:25;;;;;;;4.85;4.25;;;;;;;;;;4988084;28;20196;-58
2021/07/24 08:00:51;;;;;;;6.67;5.43;;;;;;;;;;4988068;28;20556;-57
2021/07/24 08:03:16;;;;;;;4.95;4.55;;;;;;;;;;4989933;28;20959;-57
2021/07/24 08:05:41;;;;;;;5.40;4.70;;;;;;;;;;4989732;28;20734;-59
2021/07/24 08:08:07;;;;;;;6.20;5.43;;;;;;;;;;4989086;28;20560;-61
2021/07/24 08:10:34;;;;;;;10.25;4.95;;;;;;;;;;4974765;28;20218;-58
2021/07/24 08:13:08;;;;;;;5.65;4.88;;;;;;;;;;4983884;28;20183;-58
2021/07/24 08:15:33;;;;;;;5.47;4.97;;;;;;;;;;4988558;28;20202;-55
2021/07/24 08:17:58;;;;;;;7.43;5.13;;;;;;;;;;4988479;28;20188;-55
2021/07/24 08:20:24;;;;;;;6.33;5.47;;;;;;;;;;4987052;28;20436;-55
2021/07/24 08:22:49;;;;;;;4.93;4.38;;;;;;;;;;4990998;28;20215;-56
2021/07/24 08:25:14;;;;;;;7.77;6.23;;;;;;;;;;4988651;28;20188;-57
2021/07/24 08:27:39;;;;;;;7.73;5.53;;;;;;;;;;4987027;28;20505;-56
2021/07/24 08:30:05;;;;;;;6.43;5.83;;;;;;;;;;4987179;28;20200;-57
2021/07/24 08:32:30;;;;;;;7.38;5.90;;;;;;;;;;4990874;28;20435;-56
2021/07/24 08:34:56;;;;;;;6.78;5.90;;;;;;;;;;4990421;28;20200;-56
2021/07/24 08:37:21;;;;;;;16.65;6.60;;;;;;;;;;4982979;28;21070;-56
2021/07/24 08:39:46;;;;;;;6.80;6.10;;;;;;;;;;4968531;28;20212;-56
2021/07/24 08:42:28;;;;;;;6.82;5.85;;;;;;;;;;4989616;28;20427;-56
2021/07/24 08:44:53;;;;;;;7.25;6.45;;;;;;;;;;4972398;28;20775;-56
2021/07/24 08:47:18;;;;;;;7.25;6.55;;;;;;;;;;4987019;28;20278;-56
2021/07/24 08:49:44;;;;;;;9.33;6.07;;;;;;;;;;4988674;28;20653;-56
2021/07/24 08:52:10;;;;;;;7.30;6.57;;;;;;;;;;4988243;28;20435;-56
2021/07/24 08:54:35;;;;;;;7.75;6.88;;;;;;;;;;4972785;28;20494;-56
2021/07/24 08:57:00;;;;;;;9.87;6.77;;;;;;;;;;4989637;28;20204;-57
2021/07/24 08:59:26;;;;;;;6.63;5.95;;;;;;;;;;4990251;28;20514;-56
2021/07/24 09:01:53;;;;;;;8.55;7.43;;;;;;;;;;4971447;28;20207;-56
2021/07/24 09:04:20;;;;;;;7.15;6.20;;;;;;;;;;4983203;28;20231;-56
2021/07/24 09:06:46;;;;;;;8.00;7.20;;;;;;;;;;4986079;28;20207;-56
2021/07/24 09:09:15;;;;;;;11.05;7.50;;;;;;;;;;4989255;28;20184;-56
2021/07/24 09:11:41;;;;;;;8.32;7.45;;;;;;;;;;4988977;28;20193;-56
2021/07/24 09:14:06;;;;;;;8.57;7.47;;;;;;;;;;4988652;28;20226;-57
2021/07/24 09:16:32;;;;;;;9.27;7.87;;;;;;;;;;4987682;28;20516;-57
2021/07/24 09:18:57;;;;;;;11.13;6.95;;;;;;;;;;4987292;28;20926;-57
2021/07/24 09:21:22;;;;;;;9.52;7.10;;;;;;;;;;4988258;28;20180;-57
2021/07/24 09:23:48;;;;;;;9.70;7.22;;;;;;;;;;4989151;28;20289;-57
2021/07/24 09:26:29;;;;;;;10.40;8.05;;;;;;;;;;4989218;28;20863;-56
2021/07/24 09:29:11;;;;;;;8.45;6.57;;;;;;;;;;4987738;28;20180;-56
2021/07/24 09:31:36;;;;;;;10.48;7.35;;;;;;;;;;4985350;28;20194;-57
2021/07/24 09:34:02;;;;;;;8.38;7.10;;;;;;;;;;4988196;28;20200;-56
2021/07/24 09:36:31;;;;;;;9.32;7.55;;;;;;;;;;4970220;28;20219;-56
2021/07/24 09:39:05;;;;;;;8.55;6.93;;;;;;;;;;4986852;28;20187;-57
2021/07/24 09:41:30;;;;;;;8.27;7.47;;;;;;;;;;4988941;28;20175;-56
2021/07/24 09:43:57;;;;;;;7.67;6.90;;;;;;;;;;4986886;28;20215;-56
2021/07/24 09:46:23;;;;;;;10.85;6.50;;;;;;;;;;4987162;28;20246;-57
2021/07/24 09:48:52;;;;;;;11.70;7.27;;;;;;;;;;4987757;28;20180;-57
2021/07/24 09:51:33;;;;;;;7.70;6.47;;;;;;;;;;4988500;28;20184;-56
2021/07/24 09:53:58;;;;;;;7.97;7.10;;;;;;;;;;4988848;28;20236;-56
2021/07/24 09:56:56;;;;;;;8.43;7.18;;;;;;;;;;4988873;28;20727;-56
2021/07/24 09:59:28;;;;;;;9.15;7.88;;;;;;;;;;4939319;28;20192;-56
2021/07/24 10:01:59;;;;;;;9.60;8.43;;;;;;;;;;4989160;28;20250;-56
2021/07/24 10:04:27;;;;;;;12.23;7.10;;;;;;;;;;4988006;28;20195;-56
2021/07/24 10:06:54;;;;;;;9.15;7.88;;;;;;;;;;4988263;28;20195;-56
2021/07/24 10:09:20;;;;;;;14.27;8.10;;;;;;;;;;4970215;28;20184;-56
2021/07/24 10:11:45;;;;;;;9.68;8.02;;;;;;;;;;4989074;28;20239;-56
2021/07/24 10:14:11;;;;;;;13.27;8.00;;;;;;;;;;4988178;28;20270;-56
2021/07/24 10:16:36;;;;;;;9.10;7.63;;;;;;;;;;4988027;28;20204;-56
2021/07/24 10:19:02;;;;;;;9.43;7.55;;;;;;;;;;4979299;28;20276;-56
2021/07/24 10:21:27;;;;;;;6.97;6.28;;;;;;;;;;4979345;28;20254;-56
2021/07/24 10:23:52;;;;;;;8.55;6.38;;;;;;;;;;4989194;28;20227;-56
2021/07/24 10:26:30;;;;;;;10.27;6.53;;;;;;;;;;4989171;28;20199;-56
2021/07/24 10:29:03;;;;;;;10.05;7.13;;;;;;;;;;4985671;28;20415;-56
2021/07/24 10:31:36;;;;;;;9.00;7.90;;;;;;;;;;4983928;28;20230;-56
2021/07/24 10:34:02;;;;;;;11.00;7.80;;;;;;;;;;4994026;28;20253;-56
2021/07/24 10:36:35;;;;;;;15.82;6.60;;;;;;;;;;4968477;28;20247;-56
2021/07/24 10:39:02;;;;;;;8.35;6.88;;;;;;;;;;4988491;28;20234;-56
2021/07/24 10:41:31;;;;;;;9.40;7.78;;;;;;;;;;4987089;28;20239;-56
2021/07/24 10:43:57;;;;;;;9.27;8.30;;;;;;;;;;4990260;28;20211;-56
2021/07/24 10:46:22;;;;;;;11.18;8.38;;;;;;;;;;4984797;28;20199;-56
2021/07/24 10:48:47;;;;;;;10.40;8.20;;;;;;;;;;4988540;28;20191;-54
2021/07/24 10:51:13;;;;;;;9.77;7.43;;;;;;;;;;4985453;28;20431;-55
2021/07/24 10:53:57;;;;;;;10.32;8.27;;;;;;;;;;4969624;28;20742;-56
2021/07/24 10:56:38;;;;;;;8.38;5.22;;;;;;;;;;4987264;28;20222;-57
2021/07/24 10:59:13;;;;;;;9.68;7.90;;;;;;;;;;4971902;28;20184;-56
2021/07/24 11:01:45;;;;;;;12.73;8.00;;;;;;;;;;4985754;28;20183;-56
2021/07/24 11:04:28;;;;;;;10.60;9.50;;;;;;;;;;4987339;28;20208;-56
2021/07/24 11:06:54;;;;;;;9.27;7.40;;;;;;;;;;4985999;28;20191;-56
2021/07/24 11:09:28;;;;;;;11.63;7.45;;;;;;;;;;4987705;28;20570;-56
2021/07/24 11:12:07;;;;;;;8.15;7.00;;;;;;;;;;4985817;28;20188;-56
2021/07/24 11:14:38;;;;;;;11.82;5.75;;;;;;;;;;4987913;28;20565;-56
2021/07/24 11:17:06;;;;;;;13.20;7.32;;;;;;;;;;4983970;28;20211;-57
2021/07/24 11:19:38;;;;;;;11.13;8.07;;;;;;;;;;4986671;28;20184;-56
2021/07/24 11:22:18;;;;;;;11.27;8.95;;;;;;;;;;4979264;28;20184;-56
2021/07/24 11:24:49;;;;;;;9.35;6.50;;;;;;;;;;4984485;28;20277;-56
2021/07/24 11:27:14;;;;;;;9.80;8.20;;;;;;;;;;4983391;28;20985;-56
2021/07/24 11:29:40;;;;;;;13.18;7.75;;;;;;;;;;4987467;28;20242;-55
2021/07/24 11:32:05;;;;;;;12.73;9.48;;;;;;;;;;4988771;28;20559;-56
2021/07/24 11:34:31;;;;;;;10.93;9.15;;;;;;;;;;4994256;28;20258;-57
2021/07/24 11:36:57;;;;;;;7.97;7.20;;;;;;;;;;4972076;28;20235;-57
2021/07/24 11:39:23;;;;;;;12.13;9.38;;;;;;;;;;4983607;28;20184;-57
2021/07/24 11:41:49;;;;;;;10.15;8.27;;;;;;;;;;4988844;28;20176;-56
2021/07/24 11:44:22;;;;;;;10.82;8.43;;;;;;;;;;4989568;28;20203;-57
2021/07/24 11:46:54;;;;;;;11.68;8.88;;;;;;;;;;4990264;28;20207;-56
2021/07/24 11:49:19;;;;;;;10.43;9.27;;;;;;;;;;4989057;28;20218;-56
2021/07/24 11:51:46;;;;;;;9.57;8.32;;;;;;;;;;4988805;28;20278;-56
2021/07/24 11:54:11;;;;;;;17.75;8.25;;;;;;;;;;4990640;28;20208;-57
2021/07/24 11:56:37;;;;;;;12.00;8.93;;;;;;;;;;4973269;28;20231;-57
2021/07/24 11:59:02;;;;;;;11.50;9.27;;;;;;;;;;4990069;28;20478;-56
2021/07/24 12:01:27;;;;;;;14.57;8.37;;;;;;;;;;4991416;28;20190;-56
2021/07/24 12:04:03;;;;;;;10.60;8.83;;;;;;;;;;4989020;28;20462;-56
2021/07/24 12:06:28;;;;;;;9.23;7.38;;;;;;;;;;4972748;28;20969;-56
2021/07/24 12:08:54;;;;;;;11.60;6.82;;;;;;;;;;4988053;28;20196;-56
2021/07/24 12:11:19;;;;;;;8.43;7.15;;;;;;;;;;4971045;28;20652;-58
2021/07/24 12:13:45;;;;;;;8.52;7.70;;;;;;;;;;4988559;28;20309;-56
2021/07/24 12:16:13;;;;;;;10.40;8.02;;;;;;;;;;4990258;28;20711;-56
2021/07/24 12:18:45;;;;;;;11.07;8.73;;;;;;;;;;4990379;28;20188;-56
2021/07/24 12:21:10;;;;;;;8.88;8.00;;;;;;;;;;4989302;28;20821;-56
2021/07/24 12:23:36;;;;;;;8.95;8.05;;;;;;;;;;4986498;28;20214;-56
2021/07/24 12:26:06;;;;;;;8.70;7.53;;;;;;;;;;4990668;28;20679;-56
2021/07/24 12:28:31;;;;;;;9.77;7.82;;;;;;;;;;4990450;28;20194;-57
2021/07/24 12:31:14;;;;;;;10.10;8.80;;;;;;;;;;4992148;28;20184;-56
2021/07/24 12:33:59;;;;;;;9.65;8.43;;;;;;;;;;4990064;28;20456;-56
2021/07/24 12:36:25;;;;;;;9.52;8.52;;;;;;;;;;4972920;28;20214;-55
2021/07/24 12:38:51;;;;;;;15.18;8.52;;;;;;;;;;4989770;28;20188;-56
2021/07/24 12:41:16;;;;;;;9.70;8.63;;;;;;;;;;4984024;28;20272;-57
2021/07/24 12:43:59;;;;;;;12.68;8.68;;;;;;;;;;4987537;28;20306;-57
2021/07/24 12:46:25;;;;;;;9.68;7.93;;;;;;;;;;4990845;28;20258;-57
2021/07/24 12:48:52;;;;;;;11.30;7.60;;;;;;;;;;4990056;28;20192;-56
2021/07/24 12:51:18;;;;;;;9.00;7.80;;;;;;;;;;4989295;28;20675;-56
2021/07/24 12:53:52;;;;;;;10.63;8.40;;;;;;;;;;4974730;28;20227;-57
2021/07/24 12:56:18;;;;;;;10.25;7.60;;;;;;;;;;4985160;28;20212;-56
2021/07/24 12:58:43;;;;;;;10.60;7.80;;;;;;;;;;4979264;28;20562;-56
2021/07/24 13:01:09;;;;;;;7.40;6.60;;;;;;;;;;4989899;28;20222;-56
2021/07/24 13:03:34;;;;;;;10.65;7.88;;;;;;;;;;4990032;28;21045;-56
2021/07/24 13:05:59;;;;;;;11.13;8.50;;;;;;;;;;4987779;28;20196;-56
2021/07/24 13:08:25;;;;;;;7.97;5.85;;;;;;;;;;4985429;28;20188;-56
2021/07/24 13:10:50;;;;;;;8.77;7.60;;;;;;;;;;4988530;28;20214;-56
2021/07/24 13:13:15;;;;;;;8.40;6.73;;;;;;;;;;4989717;28;21014;-56
2021/07/24 13:15:40;;;;;;;11.10;7.50;;;;;;;;;;4986120;28;20430;-56
2021/07/24 13:18:05;;;;;;;10.53;7.63;;;;;;;;;;4988181;28;21006;-56
2021/07/24 13:20:31;;;;;;;9.40;8.43;;;;;;;;;;4988833;28;20434;-56
2021/07/24 13:22:56;;;;;;;12.40;7.78;;;;;;;;;;4972564;28;20984;-58
2021/07/24 13:25:42;;;;;;;8.18;7.38;;;;;;;;;;4984584;28;20226;-57
2021/07/24 13:28:17;;;;;;;8.40;7.60;;;;;;;;;;4974930;28;20723;-57
2021/07/24 13:30:47;;;;;;;9.45;7.35;;;;;;;;;;4987819;28;20588;-55
2021/07/24 13:33:13;;;;;;;7.80;7.00;;;;;;;;;;4986338;28;20235;-56
2021/07/24 13:35:39;;;;;;;9.15;6.90;;;;;;;;;;4990066;28;20215;-56
2021/07/24 13:38:05;;;;;;;15.38;7.72;;;;;;;;;;4988469;28;20215;-56
2021/07/24 13:40:30;;;;;;;9.03;8.13;;;;;;;;;;4988406;28;20600;-56
2021/07/24 13:42:58;;;;;;;8.17;7.37;;;;;;;;;;4987343;28;20439;-56
2021/07/24 13:45:23;;;;;;;12.45;7.60;;;;;;;;;;4988383;28;20407;-55
2021/07/24 13:47:48;;;;;;;7.82;7.03;;;;;;;;;;4986834;28;20567;-57
2021/07/24 13:50:13;;;;;;;9.63;7.97;;;;;;;;;;4988377;28;20188;-56
2021/07/24 13:52:39;;;;;;;9.30;7.90;;;;;;;;;;4989550;28;20457;-56
2021/07/24 13:55:05;;;;;;;9.40;7.70;;;;;;;;;;4989817;28;20451;-56
2021/07/24 13:57:30;;;;;;;8.45;7.10;;;;;;;;;;4989956;28;20208;-57
2021/07/24 13:59:55;;;;;;;9.02;7.88;;;;;;;;;;4987716;28;20585;-56
2021/07/24 14:02:21;;;;;;;9.07;7.50;;;;;;;;;;4974424;28;20191;-56
2021/07/24 14:04:46;;;;;;;10.63;7.47;;;;;;;;;;4983449;28;20830;-56
2021/07/24 14:07:11;;;;;;;8.20;6.90;;;;;;;;;;4985758;28;20194;-56
2021/07/24 14:09:36;;;;;;;8.37;7.47;;;;;;;;;;4990238;28;20187;-56
2021/07/24 14:12:02;;;;;;;8.48;7.60;;;;;;;;;;4982566;28;21010;-56
2021/07/24 14:14:28;;;;;;;10.60;8.00;;;;;;;;;;4993196;28;20212;-56
2021/07/24 14:16:53;;;;;;;9.80;7.75;;;;;;;;;;4977410;28;20235;-56
2021/07/24 14:19:19;;;;;;;11.43;7.30;;;;;;;;;;4984675;28;20278;-56
2021/07/24 14:21:44;;;;;;;9.03;7.93;;;;;;;;;;4989571;28;20423;-55
2021/07/24 14:24:09;;;;;;;9.00;8.10;;;;;;;;;;4978312;28;20446;-56
2021/07/24 14:26:34;;;;;;;10.20;8.17;;;;;;;;;;4976443;28;20203;-56
2021/07/24 14:28:59;;;;;;;7.60;6.90;;;;;;;;;;4983441;28;20489;-56
2021/07/24 14:31:25;;;;;;;10.47;8.70;;;;;;;;;;4988679;28;20192;-56
2021/07/24 14:33:50;;;;;;;8.77;7.73;;;;;;;;;;4982816;28;20451;-56
2021/07/24 14:36:15;;;;;;;8.63;7.53;;;;;;;;;;4989594;28;21418;-56
2021/07/24 14:38:41;;;;;;;10.38;7.72;;;;;;;;;;4978781;28;20415;-55
2021/07/24 14:41:07;;;;;;;8.63;7.72;;;;;;;;;;4987322;28;20188;-56
2021/07/24 14:43:36;;;;;;;11.48;8.15;;;;;;;;;;4988375;28;20635;-55